Kenmore, Washington
Current Conditions -  °F | °C
As of 8:53 PM on Wednesday 22 Oct 2014 (Local Time) from KPAE Reporting Station
Light Rain Light Rain  
Wind Chill: 55°   Ceiling: 7000
Heat Index: 55°   Visibility: 8mi
Dew Point: 51°   Wind: 22mph
Humidity: 86%   Direction: 190°S
Pressure: 29.59"   Gusts: 30mph
Location:  47.76°N, 122.24°W
Report Text: KPAE 230353Z AUTO 19019G26KT 8SM -RA SCT055 OVC070 13/11 A2959 RMK AO2 PK WND 19026/0346 SLP020 P0007 T01280106
Loading
Personal Weather Stations






























Interactive Weather Map
Tropical Storm Tracking
New forecast layout! Learn more

10-Day Weather Forecast

Advertisements
Track Severe Weather on mobile